sensor_id;sensor_type;location;lat;lon;timestamp;P1;durP1;ratioP1;P2;durP2;ratioP2
41255;SDS011;26989;45.524;10.938;2023-02-13T00:00:19;8.32;;;4.20;;
41255;SDS011;26989;45.524;10.938;2023-02-13T00:02:47;9.40;;;4.28;;
41255;SDS011;26989;45.524;10.938;2023-02-13T00:05:14;6.18;;;3.72;;
41255;SDS011;26989;45.524;10.938;2023-02-13T00:07:41;10.80;;;5.05;;
41255;SDS011;26989;45.524;10.938;2023-02-13T00:10:08;8.88;;;4.85;;
41255;SDS011;26989;45.524;10.938;2023-02-13T00:12:35;10.27;;;4.65;;
41255;SDS011;26989;45.524;10.938;2023-02-13T00:15:03;9.77;;;4.90;;
41255;SDS011;26989;45.524;10.938;2023-02-13T00:17:30;7.93;;;4.45;;
41255;SDS011;26989;45.524;10.938;2023-02-13T00:19:57;6.78;;;4.03;;
41255;SDS011;26989;45.524;10.938;2023-02-13T00:22:24;7.30;;;4.45;;
41255;SDS011;26989;45.524;10.938;2023-02-13T00:24:52;9.88;;;4.63;;
41255;SDS011;26989;45.524;10.938;2023-02-13T00:27:19;11.10;;;4.82;;
41255;SDS011;26989;45.524;10.938;2023-02-13T00:29:46;10.73;;;4.80;;
41255;SDS011;26989;45.524;10.938;2023-02-13T00:32:13;7.78;;;4.15;;
41255;SDS011;26989;45.524;10.938;2023-02-13T00:34:40;7.68;;;3.95;;
41255;SDS011;26989;45.524;10.938;2023-02-13T00:37:09;9.43;;;4.30;;
41255;SDS011;26989;45.524;10.938;2023-02-13T00:39:36;8.60;;;4.03;;
41255;SDS011;26989;45.524;10.938;2023-02-13T00:42:03;9.50;;;4.63;;
41255;SDS011;26989;45.524;10.938;2023-02-13T00:44:30;9.43;;;4.80;;
41255;SDS011;26989;45.524;10.938;2023-02-13T00:46:57;9.00;;;4.63;;
41255;SDS011;26989;45.524;10.938;2023-02-13T00:49:24;7.50;;;4.22;;
41255;SDS011;26989;45.524;10.938;2023-02-13T00:51:51;9.77;;;5.18;;
41255;SDS011;26989;45.524;10.938;2023-02-13T00:54:18;12.27;;;5.78;;
41255;SDS011;26989;45.524;10.938;2023-02-13T00:56:45;9.80;;;4.70;;
41255;SDS011;26989;45.524;10.938;2023-02-13T00:59:12;8.88;;;4.45;;
41255;SDS011;26989;45.524;10.938;2023-02-13T01:01:38;8.75;;;4.70;;
41255;SDS011;26989;45.524;10.938;2023-02-13T01:04:05;9.65;;;5.32;;
41255;SDS011;26989;45.524;10.938;2023-02-13T01:06:32;11.48;;;5.95;;
41255;SDS011;26989;45.524;10.938;2023-02-13T01:08:59;9.35;;;4.78;;
41255;SDS011;26989;45.524;10.938;2023-02-13T01:11:27;8.27;;;4.47;;
41255;SDS011;26989;45.524;10.938;2023-02-13T01:13:54;7.68;;;4.00;;
41255;SDS011;26989;45.524;10.938;2023-02-13T01:16:21;10.10;;;4.55;;
41255;SDS011;26989;45.524;10.938;2023-02-13T01:18:48;11.93;;;4.55;;
41255;SDS011;26989;45.524;10.938;2023-02-13T01:21:16;7.95;;;4.07;;
41255;SDS011;26989;45.524;10.938;2023-02-13T01:23:44;10.15;;;4.82;;
41255;SDS011;26989;45.524;10.938;2023-02-13T01:26:15;8.77;;;4.38;;
41255;SDS011;26989;45.524;10.938;2023-02-13T01:28:45;7.32;;;4.10;;
41255;SDS011;26989;45.524;10.938;2023-02-13T01:31:12;10.50;;;5.20;;
41255;SDS011;26989;45.524;10.938;2023-02-13T01:33:39;10.60;;;5.35;;
41255;SDS011;26989;45.524;10.938;2023-02-13T01:36:07;8.52;;;4.75;;
41255;SDS011;26989;45.524;10.938;2023-02-13T01:38:36;17.63;;;5.00;;
41255;SDS011;26989;45.524;10.938;2023-02-13T01:41:03;9.68;;;4.55;;
41255;SDS011;26989;45.524;10.938;2023-02-13T01:43:43;12.00;;;5.32;;
41255;SDS011;26989;45.524;10.938;2023-02-13T01:46:30;10.75;;;5.30;;
41255;SDS011;26989;45.524;10.938;2023-02-13T01:49:03;9.30;;;4.72;;
41255;SDS011;26989;45.524;10.938;2023-02-13T01:51:36;8.95;;;5.30;;
41255;SDS011;26989;45.524;10.938;2023-02-13T01:54:08;10.55;;;4.60;;
41255;SDS011;26989;45.524;10.938;2023-02-13T01:56:41;9.48;;;5.07;;
41255;SDS011;26989;45.524;10.938;2023-02-13T01:59:13;8.23;;;4.60;;
41255;SDS011;26989;45.524;10.938;2023-02-13T02:01:47;12.43;;;5.13;;
41255;SDS011;26989;45.524;10.938;2023-02-13T02:04:16;10.48;;;5.43;;
41255;SDS011;26989;45.524;10.938;2023-02-13T02:06:49;12.35;;;5.38;;
41255;SDS011;26989;45.524;10.938;2023-02-13T02:09:20;9.15;;;5.10;;
41255;SDS011;26989;45.524;10.938;2023-02-13T02:14:48;5.85;;;3.25;;
41255;SDS011;26989;45.524;10.938;2023-02-13T02:17:17;6.82;;;3.65;;
41255;SDS011;26989;45.524;10.938;2023-02-13T02:34:25;8.90;;;4.15;;
41255;SDS011;26989;45.524;10.938;2023-02-13T02:42:24;7.88;;;4.13;;
41255;SDS011;26989;45.524;10.938;2023-02-13T02:45:21;8.70;;;4.80;;
41255;SDS011;26989;45.524;10.938;2023-02-13T02:48:11;6.93;;;3.38;;
41255;SDS011;26989;45.524;10.938;2023-02-13T02:51:02;8.52;;;3.90;;
41255;SDS011;26989;45.524;10.938;2023-02-13T02:53:51;6.88;;;3.83;;
41255;SDS011;26989;45.524;10.938;2023-02-13T02:56:46;7.93;;;3.50;;
41255;SDS011;26989;45.524;10.938;2023-02-13T02:59:14;7.57;;;3.92;;
41255;SDS011;26989;45.524;10.938;2023-02-13T03:02:01;6.65;;;3.85;;
41255;SDS011;26989;45.524;10.938;2023-02-13T03:04:49;9.43;;;4.22;;
41255;SDS011;26989;45.524;10.938;2023-02-13T03:07:36;7.00;;;4.10;;
41255;SDS011;26989;45.524;10.938;2023-02-13T03:10:08;8.65;;;4.60;;
41255;SDS011;26989;45.524;10.938;2023-02-13T03:13:03;6.18;;;3.63;;
41255;SDS011;26989;45.524;10.938;2023-02-13T03:15:56;7.60;;;4.15;;
41255;SDS011;26989;45.524;10.938;2023-02-13T03:18:45;8.63;;;4.63;;
41255;SDS011;26989;45.524;10.938;2023-02-13T03:30:14;7.72;;;4.70;;
41255;SDS011;26989;45.524;10.938;2023-02-13T03:33:13;9.40;;;4.47;;
41255;SDS011;26989;45.524;10.938;2023-02-13T03:35:48;8.68;;;4.57;;
41255;SDS011;26989;45.524;10.938;2023-02-13T03:38:50;9.95;;;4.40;;
41255;SDS011;26989;45.524;10.938;2023-02-13T03:41:19;7.10;;;4.05;;
41255;SDS011;26989;45.524;10.938;2023-02-13T03:46:19;8.23;;;4.45;;
41255;SDS011;26989;45.524;10.938;2023-02-13T03:48:48;7.95;;;4.47;;
41255;SDS011;26989;45.524;10.938;2023-02-13T03:51:39;7.18;;;4.18;;
41255;SDS011;26989;45.524;10.938;2023-02-13T03:54:13;7.32;;;4.65;;
41255;SDS011;26989;45.524;10.938;2023-02-13T03:57:10;8.25;;;4.57;;
41255;SDS011;26989;45.524;10.938;2023-02-13T04:00:02;9.32;;;4.57;;
41255;SDS011;26989;45.524;10.938;2023-02-13T04:02:33;7.27;;;4.67;;
41255;SDS011;26989;45.524;10.938;2023-02-13T04:07:36;9.38;;;4.32;;
41255;SDS011;26989;45.524;10.938;2023-02-13T04:10:10;6.68;;;3.92;;
41255;SDS011;26989;45.524;10.938;2023-02-13T04:12:44;7.07;;;4.00;;
41255;SDS011;26989;45.524;10.938;2023-02-13T04:18:10;7.70;;;4.43;;
41255;SDS011;26989;45.524;10.938;2023-02-13T04:20:53;10.60;;;4.38;;
41255;SDS011;26989;45.524;10.938;2023-02-13T04:23:20;6.75;;;3.80;;
41255;SDS011;26989;45.524;10.938;2023-02-13T04:25:48;8.57;;;3.88;;
41255;SDS011;26989;45.524;10.938;2023-02-13T04:28:17;10.50;;;4.10;;
41255;SDS011;26989;45.524;10.938;2023-02-13T04:30:44;8.90;;;4.07;;
41255;SDS011;26989;45.524;10.938;2023-02-13T04:33:11;6.32;;;3.92;;
41255;SDS011;26989;45.524;10.938;2023-02-13T04:35:38;8.43;;;4.10;;
41255;SDS011;26989;45.524;10.938;2023-02-13T04:38:04;9.45;;;4.15;;
41255;SDS011;26989;45.524;10.938;2023-02-13T04:40:31;10.80;;;4.53;;
41255;SDS011;26989;45.524;10.938;2023-02-13T04:42:58;9.63;;;4.80;;
41255;SDS011;26989;45.524;10.938;2023-02-13T04:45:25;7.97;;;4.47;;
41255;SDS011;26989;45.524;10.938;2023-02-13T04:47:53;8.40;;;4.00;;
41255;SDS011;26989;45.524;10.938;2023-02-13T04:50:21;7.30;;;4.25;;
41255;SDS011;26989;45.524;10.938;2023-02-13T04:52:53;10.30;;;5.70;;
41255;SDS011;26989;45.524;10.938;2023-02-13T04:57:50;11.77;;;4.70;;
41255;SDS011;26989;45.524;10.938;2023-02-13T05:00:19;14.35;;;5.13;;
41255;SDS011;26989;45.524;10.938;2023-02-13T05:02:47;9.48;;;4.13;;
41255;SDS011;26989;45.524;10.938;2023-02-13T05:05:14;10.57;;;4.57;;
41255;SDS011;26989;45.524;10.938;2023-02-13T05:07:41;7.72;;;4.38;;
41255;SDS011;26989;45.524;10.938;2023-02-13T05:10:08;7.85;;;4.30;;
41255;SDS011;26989;45.524;10.938;2023-02-13T05:12:36;7.20;;;4.32;;
41255;SDS011;26989;45.524;10.938;2023-02-13T05:15:04;10.27;;;4.63;;
41255;SDS011;26989;45.524;10.938;2023-02-13T05:17:31;10.50;;;4.68;;
41255;SDS011;26989;45.524;10.938;2023-02-13T05:19:58;7.57;;;4.68;;
41255;SDS011;26989;45.524;10.938;2023-02-13T05:22:25;10.25;;;4.68;;
41255;SDS011;26989;45.524;10.938;2023-02-13T05:25:10;11.68;;;4.78;;
41255;SDS011;26989;45.524;10.938;2023-02-13T05:27:37;12.05;;;5.28;;
41255;SDS011;26989;45.524;10.938;2023-02-13T05:30:04;8.23;;;4.68;;
41255;SDS011;26989;45.524;10.938;2023-02-13T05:32:31;7.90;;;4.68;;
41255;SDS011;26989;45.524;10.938;2023-02-13T05:34:58;7.30;;;4.45;;
41255;SDS011;26989;45.524;10.938;2023-02-13T05:37:28;9.18;;;4.90;;
41255;SDS011;26989;45.524;10.938;2023-02-13T05:39:55;42.70;;;8.15;;
41255;SDS011;26989;45.524;10.938;2023-02-13T05:42:22;8.35;;;5.05;;
41255;SDS011;26989;45.524;10.938;2023-02-13T05:44:48;9.60;;;5.55;;
41255;SDS011;26989;45.524;10.938;2023-02-13T05:47:15;11.77;;;5.65;;
41255;SDS011;26989;45.524;10.938;2023-02-13T05:49:42;11.00;;;4.60;;
41255;SDS011;26989;45.524;10.938;2023-02-13T05:52:09;9.68;;;4.82;;
41255;SDS011;26989;45.524;10.938;2023-02-13T05:54:36;9.00;;;4.35;;
41255;SDS011;26989;45.524;10.938;2023-02-13T05:57:04;8.30;;;4.63;;
41255;SDS011;26989;45.524;10.938;2023-02-13T05:59:31;8.98;;;5.25;;
41255;SDS011;26989;45.524;10.938;2023-02-13T06:01:58;10.88;;;5.30;;
41255;SDS011;26989;45.524;10.938;2023-02-13T06:04:25;8.68;;;4.85;;
41255;SDS011;26989;45.524;10.938;2023-02-13T06:06:52;10.75;;;5.57;;
41255;SDS011;26989;45.524;10.938;2023-02-13T06:09:18;10.88;;;5.78;;
41255;SDS011;26989;45.524;10.938;2023-02-13T06:11:45;14.70;;;5.75;;
41255;SDS011;26989;45.524;10.938;2023-02-13T06:14:12;10.88;;;5.75;;
41255;SDS011;26989;45.524;10.938;2023-02-13T06:16:40;13.48;;;6.07;;
41255;SDS011;26989;45.524;10.938;2023-02-13T06:19:07;12.32;;;6.53;;
41255;SDS011;26989;45.524;10.938;2023-02-13T06:21:34;11.50;;;6.53;;
41255;SDS011;26989;45.524;10.938;2023-02-13T06:24:03;17.05;;;6.15;;
41255;SDS011;26989;45.524;10.938;2023-02-13T06:26:31;11.35;;;6.03;;
41255;SDS011;26989;45.524;10.938;2023-02-13T06:28:58;14.07;;;7.78;;
41255;SDS011;26989;45.524;10.938;2023-02-13T06:31:25;13.85;;;6.88;;
41255;SDS011;26989;45.524;10.938;2023-02-13T06:33:52;13.48;;;7.60;;
41255;SDS011;26989;45.524;10.938;2023-02-13T06:36:19;16.00;;;7.45;;
41255;SDS011;26989;45.524;10.938;2023-02-13T06:38:46;19.95;;;7.78;;
41255;SDS011;26989;45.524;10.938;2023-02-13T06:41:13;13.10;;;6.20;;
41255;SDS011;26989;45.524;10.938;2023-02-13T06:43:40;16.58;;;8.00;;
41255;SDS011;26989;45.524;10.938;2023-02-13T06:46:08;16.80;;;8.25;;
41255;SDS011;26989;45.524;10.938;2023-02-13T06:48:35;15.82;;;8.30;;
41255;SDS011;26989;45.524;10.938;2023-02-13T06:51:02;20.02;;;8.82;;
41255;SDS011;26989;45.524;10.938;2023-02-13T06:53:29;20.85;;;8.98;;
41255;SDS011;26989;45.524;10.938;2023-02-13T06:55:56;13.88;;;7.70;;
41255;SDS011;26989;45.524;10.938;2023-02-13T06:58:24;21.55;;;9.65;;
41255;SDS011;26989;45.524;10.938;2023-02-13T07:00:51;16.30;;;8.80;;
41255;SDS011;26989;45.524;10.938;2023-02-13T07:03:19;25.95;;;10.77;;
41255;SDS011;26989;45.524;10.938;2023-02-13T07:05:46;26.27;;;13.10;;
41255;SDS011;26989;45.524;10.938;2023-02-13T07:08:17;38.00;;;16.65;;
41255;SDS011;26989;45.524;10.938;2023-02-13T07:10:44;61.42;;;23.35;;
41255;SDS011;26989;45.524;10.938;2023-02-13T07:13:11;49.83;;;20.83;;
41255;SDS011;26989;45.524;10.938;2023-02-13T07:15:38;62.03;;;21.63;;
41255;SDS011;26989;45.524;10.938;2023-02-13T07:18:05;49.05;;;19.08;;
41255;SDS011;26989;45.524;10.938;2023-02-13T07:20:32;48.30;;;22.00;;
41255;SDS011;26989;45.524;10.938;2023-02-13T07:23:00;42.33;;;19.70;;
41255;SDS011;26989;45.524;10.938;2023-02-13T07:25:29;44.15;;;18.90;;
41255;SDS011;26989;45.524;10.938;2023-02-13T07:28:00;39.17;;;13.88;;
41255;SDS011;26989;45.524;10.938;2023-02-13T07:30:29;23.02;;;10.77;;
41255;SDS011;26989;45.524;10.938;2023-02-13T07:33:03;22.38;;;10.95;;
41255;SDS011;26989;45.524;10.938;2023-02-13T07:35:53;16.60;;;10.13;;
41255;SDS011;26989;45.524;10.938;2023-02-13T07:38:20;23.92;;;10.18;;
41255;SDS011;26989;45.524;10.938;2023-02-13T07:40:46;22.60;;;11.05;;
41255;SDS011;26989;45.524;10.938;2023-02-13T07:43:27;23.50;;;11.35;;
41255;SDS011;26989;45.524;10.938;2023-02-13T07:45:59;37.58;;;15.35;;
41255;SDS011;26989;45.524;10.938;2023-02-13T07:48:27;52.35;;;21.92;;
41255;SDS011;26989;45.524;10.938;2023-02-13T07:50:58;60.17;;;26.38;;
41255;SDS011;26989;45.524;10.938;2023-02-13T07:53:25;68.70;;;28.13;;
41255;SDS011;26989;45.524;10.938;2023-02-13T07:55:52;76.82;;;28.67;;
41255;SDS011;26989;45.524;10.938;2023-02-13T07:58:20;79.20;;;33.42;;
41255;SDS011;26989;45.524;10.938;2023-02-13T08:00:46;87.68;;;37.17;;
41255;SDS011;26989;45.524;10.938;2023-02-13T08:03:13;103.63;;;40.30;;
41255;SDS011;26989;45.524;10.938;2023-02-13T08:05:40;112.03;;;43.10;;
41255;SDS011;26989;45.524;10.938;2023-02-13T08:08:07;125.18;;;47.92;;
41255;SDS011;26989;45.524;10.938;2023-02-13T08:10:34;123.65;;;44.80;;
41255;SDS011;26989;45.524;10.938;2023-02-13T08:13:20;108.72;;;43.70;;
41255;SDS011;26989;45.524;10.938;2023-02-13T08:15:47;104.28;;;40.28;;
41255;SDS011;26989;45.524;10.938;2023-02-13T08:18:14;75.40;;;30.80;;
41255;SDS011;26989;45.524;10.938;2023-02-13T08:20:43;73.30;;;28.35;;
41255;SDS011;26989;45.524;10.938;2023-02-13T08:23:10;62.20;;;29.17;;
41255;SDS011;26989;45.524;10.938;2023-02-13T08:25:37;94.90;;;35.55;;
41255;SDS011;26989;45.524;10.938;2023-02-13T08:28:04;96.03;;;37.90;;
41255;SDS011;26989;45.524;10.938;2023-02-13T08:30:31;86.07;;;35.90;;
41255;SDS011;26989;45.524;10.938;2023-02-13T08:32:58;82.38;;;34.85;;
41255;SDS011;26989;45.524;10.938;2023-02-13T08:35:25;52.28;;;24.00;;
41255;SDS011;26989;45.524;10.938;2023-02-13T08:37:55;60.50;;;26.02;;
41255;SDS011;26989;45.524;10.938;2023-02-13T08:40:22;66.60;;;29.27;;
41255;SDS011;26989;45.524;10.938;2023-02-13T08:42:51;65.82;;;28.35;;
41255;SDS011;26989;45.524;10.938;2023-02-13T08:45:18;70.15;;;27.23;;
41255;SDS011;26989;45.524;10.938;2023-02-13T08:47:44;54.10;;;23.73;;
41255;SDS011;26989;45.524;10.938;2023-02-13T08:50:11;48.30;;;21.40;;
41255;SDS011;26989;45.524;10.938;2023-02-13T08:52:38;47.03;;;19.15;;
41255;SDS011;26989;45.524;10.938;2023-02-13T08:55:05;38.08;;;20.00;;
41255;SDS011;26989;45.524;10.938;2023-02-13T08:57:33;39.13;;;18.70;;
41255;SDS011;26989;45.524;10.938;2023-02-13T09:00:00;40.17;;;17.58;;
41255;SDS011;26989;45.524;10.938;2023-02-13T09:02:27;37.97;;;17.15;;
41255;SDS011;26989;45.524;10.938;2023-02-13T09:04:54;52.75;;;22.05;;
41255;SDS011;26989;45.524;10.938;2023-02-13T09:07:21;45.22;;;20.90;;
41255;SDS011;26989;45.524;10.938;2023-02-13T09:09:48;42.42;;;20.67;;
41255;SDS011;26989;45.524;10.938;2023-02-13T09:12:15;33.58;;;16.83;;
41255;SDS011;26989;45.524;10.938;2023-02-13T09:14:42;36.85;;;16.05;;
41255;SDS011;26989;45.524;10.938;2023-02-13T09:17:09;34.97;;;15.90;;
41255;SDS011;26989;45.524;10.938;2023-02-13T09:19:36;37.15;;;16.67;;
41255;SDS011;26989;45.524;10.938;2023-02-13T09:22:03;33.92;;;16.83;;
41255;SDS011;26989;45.524;10.938;2023-02-13T09:24:30;36.15;;;15.95;;
41255;SDS011;26989;45.524;10.938;2023-02-13T09:26:57;33.63;;;16.05;;
41255;SDS011;26989;45.524;10.938;2023-02-13T09:29:23;35.13;;;16.10;;
41255;SDS011;26989;45.524;10.938;2023-02-13T09:31:50;42.10;;;16.92;;
41255;SDS011;26989;45.524;10.938;2023-02-13T09:34:19;26.77;;;13.75;;
41255;SDS011;26989;45.524;10.938;2023-02-13T09:36:50;36.05;;;16.38;;
41255;SDS011;26989;45.524;10.938;2023-02-13T09:39:18;29.73;;;15.57;;
41255;SDS011;26989;45.524;10.938;2023-02-13T09:41:46;25.35;;;13.23;;
41255;SDS011;26989;45.524;10.938;2023-02-13T09:44:19;20.90;;;11.55;;
41255;SDS011;26989;45.524;10.938;2023-02-13T09:49:49;34.25;;;13.13;;
41255;SDS011;26989;45.524;10.938;2023-02-13T09:52:19;23.95;;;12.68;;
41255;SDS011;26989;45.524;10.938;2023-02-13T09:54:46;37.05;;;14.73;;
41255;SDS011;26989;45.524;10.938;2023-02-13T09:59:57;34.65;;;17.77;;
41255;SDS011;26989;45.524;10.938;2023-02-13T10:05:20;40.50;;;18.88;;
41255;SDS011;26989;45.524;10.938;2023-02-13T10:10:33;27.30;;;14.20;;
41255;SDS011;26989;45.524;10.938;2023-02-13T10:13:35;25.77;;;13.57;;
41255;SDS011;26989;45.524;10.938;2023-02-13T10:21:20;27.60;;;13.10;;
41255;SDS011;26989;45.524;10.938;2023-02-13T10:26:30;31.08;;;12.85;;
41255;SDS011;26989;45.524;10.938;2023-02-13T10:29:12;30.25;;;11.80;;
41255;SDS011;26989;45.524;10.938;2023-02-13T10:32:02;27.38;;;12.90;;
41255;SDS011;26989;45.524;10.938;2023-02-13T10:34:39;21.50;;;11.38;;
41255;SDS011;26989;45.524;10.938;2023-02-13T10:37:12;20.33;;;11.02;;
41255;SDS011;26989;45.524;10.938;2023-02-13T10:39:45;21.02;;;10.98;;
41255;SDS011;26989;45.524;10.938;2023-02-13T10:50:22;16.35;;;8.90;;
41255;SDS011;26989;45.524;10.938;2023-02-13T10:53:07;19.85;;;9.40;;
41255;SDS011;26989;45.524;10.938;2023-02-13T11:03:34;15.85;;;8.65;;
41255;SDS011;26989;45.524;10.938;2023-02-13T11:06:04;24.65;;;9.93;;
41255;SDS011;26989;45.524;10.938;2023-02-13T11:08:34;13.43;;;8.50;;
41255;SDS011;26989;45.524;10.938;2023-02-13T11:21:54;17.98;;;7.68;;
41255;SDS011;26989;45.524;10.938;2023-02-13T11:24:25;14.13;;;7.97;;
41255;SDS011;26989;45.524;10.938;2023-02-13T11:26:56;11.57;;;6.93;;
41255;SDS011;26989;45.524;10.938;2023-02-13T11:29:31;9.63;;;6.70;;
41255;SDS011;26989;45.524;10.938;2023-02-13T11:32:01;15.70;;;7.70;;
41255;SDS011;26989;45.524;10.938;2023-02-13T11:34:31;12.23;;;6.22;;
41255;SDS011;26989;45.524;10.938;2023-02-13T11:37:12;15.02;;;6.72;;
41255;SDS011;26989;45.524;10.938;2023-02-13T11:39:41;14.15;;;6.78;;
41255;SDS011;26989;45.524;10.938;2023-02-13T11:42:16;10.48;;;6.40;;
41255;SDS011;26989;45.524;10.938;2023-02-13T11:44:49;11.02;;;5.63;;
41255;SDS011;26989;45.524;10.938;2023-02-13T11:53:06;11.27;;;5.90;;
41255;SDS011;26989;45.524;10.938;2023-02-13T11:55:42;10.30;;;6.03;;
41255;SDS011;26989;45.524;10.938;2023-02-13T12:00:37;10.02;;;6.90;;
41255;SDS011;26989;45.524;10.938;2023-02-13T12:08:45;9.07;;;5.50;;
41255;SDS011;26989;45.524;10.938;2023-02-13T12:13:59;12.68;;;6.88;;
41255;SDS011;26989;45.524;10.938;2023-02-13T12:16:29;10.50;;;5.82;;
41255;SDS011;26989;45.524;10.938;2023-02-13T12:19:02;9.50;;;5.47;;
41255;SDS011;26989;45.524;10.938;2023-02-13T12:30:13;14.02;;;6.28;;
41255;SDS011;26989;45.524;10.938;2023-02-13T12:33:12;9.05;;;5.80;;
41255;SDS011;26989;45.524;10.938;2023-02-13T12:36:11;11.13;;;5.30;;
41255;SDS011;26989;45.524;10.938;2023-02-13T12:41:38;12.68;;;5.63;;
41255;SDS011;26989;45.524;10.938;2023-02-13T12:47:16;12.77;;;7.15;;
41255;SDS011;26989;45.524;10.938;2023-02-13T12:52:49;11.63;;;7.57;;
41255;SDS011;26989;45.524;10.938;2023-02-13T12:55:32;13.48;;;8.10;;
41255;SDS011;26989;45.524;10.938;2023-02-13T13:13:16;12.48;;;8.55;;
41255;SDS011;26989;45.524;10.938;2023-02-13T13:18:25;21.33;;;9.52;;
41255;SDS011;26989;45.524;10.938;2023-02-13T13:26:54;15.75;;;9.30;;
41255;SDS011;26989;45.524;10.938;2023-02-13T13:29:24;15.48;;;9.48;;
41255;SDS011;26989;45.524;10.938;2023-02-13T13:32:13;16.85;;;9.93;;
41255;SDS011;26989;45.524;10.938;2023-02-13T13:34:45;15.70;;;10.25;;
41255;SDS011;26989;45.524;10.938;2023-02-13T13:37:35;17.40;;;10.48;;
41255;SDS011;26989;45.524;10.938;2023-02-13T13:40:02;17.05;;;10.30;;
41255;SDS011;26989;45.524;10.938;2023-02-13T13:43:02;17.05;;;9.73;;
41255;SDS011;26989;45.524;10.938;2023-02-13T13:51:25;21.73;;;10.90;;
41255;SDS011;26989;45.524;10.938;2023-02-13T14:02:47;16.77;;;10.88;;
41255;SDS011;26989;45.524;10.938;2023-02-13T14:08:03;17.42;;;10.38;;
41255;SDS011;26989;45.524;10.938;2023-02-13T14:14:00;23.13;;;11.68;;
41255;SDS011;26989;45.524;10.938;2023-02-13T14:16:50;20.02;;;11.43;;
41255;SDS011;26989;45.524;10.938;2023-02-13T14:19:25;17.95;;;11.10;;
41255;SDS011;26989;45.524;10.938;2023-02-13T14:27:30;20.38;;;12.13;;
41255;SDS011;26989;45.524;10.938;2023-02-13T14:29:57;17.60;;;11.48;;
41255;SDS011;26989;45.524;10.938;2023-02-13T14:32:32;16.85;;;10.82;;
41255;SDS011;26989;45.524;10.938;2023-02-13T14:37:55;15.18;;;10.88;;
41255;SDS011;26989;45.524;10.938;2023-02-13T14:45:47;24.58;;;13.68;;
41255;SDS011;26989;45.524;10.938;2023-02-13T14:48:56;20.48;;;12.38;;
41255;SDS011;26989;45.524;10.938;2023-02-13T14:51:33;19.58;;;12.20;;
41255;SDS011;26989;45.524;10.938;2023-02-13T14:54:08;18.20;;;12.30;;
41255;SDS011;26989;45.524;10.938;2023-02-13T14:56:46;25.88;;;13.05;;
41255;SDS011;26989;45.524;10.938;2023-02-13T14:59:21;21.27;;;12.63;;
41255;SDS011;26989;45.524;10.938;2023-02-13T15:01:55;22.75;;;13.23;;
41255;SDS011;26989;45.524;10.938;2023-02-13T15:04:45;20.42;;;13.18;;
41255;SDS011;26989;45.524;10.938;2023-02-13T15:08:19;19.52;;;12.70;;
41255;SDS011;26989;45.524;10.938;2023-02-13T15:10:27;29.65;;;13.48;;
41255;SDS011;26989;45.524;10.938;2023-02-13T15:13:00;22.92;;;13.40;;
41255;SDS011;26989;45.524;10.938;2023-02-13T15:15:33;21.58;;;12.95;;
41255;SDS011;26989;45.524;10.938;2023-02-13T15:18:02;21.25;;;13.13;;
41255;SDS011;26989;45.524;10.938;2023-02-13T15:20:36;21.25;;;12.57;;
41255;SDS011;26989;45.524;10.938;2023-02-13T15:23:05;21.98;;;12.90;;
41255;SDS011;26989;45.524;10.938;2023-02-13T15:25:33;24.02;;;13.00;;
41255;SDS011;26989;45.524;10.938;2023-02-13T15:28:03;19.90;;;13.75;;
41255;SDS011;26989;45.524;10.938;2023-02-13T15:30:33;21.60;;;13.43;;
41255;SDS011;26989;45.524;10.938;2023-02-13T15:33:11;21.25;;;12.90;;
41255;SDS011;26989;45.524;10.938;2023-02-13T15:35:45;29.63;;;14.43;;
41255;SDS011;26989;45.524;10.938;2023-02-13T15:38:26;27.90;;;12.95;;
41255;SDS011;26989;45.524;10.938;2023-02-13T15:41:08;25.45;;;13.50;;
41255;SDS011;26989;45.524;10.938;2023-02-13T15:43:39;29.52;;;13.90;;
41255;SDS011;26989;45.524;10.938;2023-02-13T15:49:06;23.67;;;13.80;;
41255;SDS011;26989;45.524;10.938;2023-02-13T15:51:36;22.50;;;12.98;;
41255;SDS011;26989;45.524;10.938;2023-02-13T15:54:04;29.75;;;13.82;;
41255;SDS011;26989;45.524;10.938;2023-02-13T15:56:52;31.17;;;15.05;;
41255;SDS011;26989;45.524;10.938;2023-02-13T15:59:22;29.45;;;15.52;;
41255;SDS011;26989;45.524;10.938;2023-02-13T16:01:54;25.08;;;14.45;;
41255;SDS011;26989;45.524;10.938;2023-02-13T16:04:21;27.80;;;16.92;;
41255;SDS011;26989;45.524;10.938;2023-02-13T16:06:50;28.38;;;14.60;;
41255;SDS011;26989;45.524;10.938;2023-02-13T16:09:31;28.95;;;14.30;;
41255;SDS011;26989;45.524;10.938;2023-02-13T16:12:06;28.88;;;15.77;;
41255;SDS011;26989;45.524;10.938;2023-02-13T16:17:41;41.97;;;15.55;;
41255;SDS011;26989;45.524;10.938;2023-02-13T16:27:49;41.28;;;18.48;;
41255;SDS011;26989;45.524;10.938;2023-02-13T16:30:42;33.72;;;20.40;;
41255;SDS011;26989;45.524;10.938;2023-02-13T16:35:42;41.88;;;23.42;;
41255;SDS011;26989;45.524;10.938;2023-02-13T16:38:26;63.88;;;26.02;;
41255;SDS011;26989;45.524;10.938;2023-02-13T16:46:48;43.58;;;23.17;;
41255;SDS011;26989;45.524;10.938;2023-02-13T16:49:19;41.63;;;24.20;;
41255;SDS011;26989;45.524;10.938;2023-02-13T16:51:54;48.53;;;22.60;;
41255;SDS011;26989;45.524;10.938;2023-02-13T16:57:17;58.78;;;22.63;;
41255;SDS011;26989;45.524;10.938;2023-02-13T17:00:05;41.65;;;21.63;;
41255;SDS011;26989;45.524;10.938;2023-02-13T17:02:35;41.40;;;20.88;;
41255;SDS011;26989;45.524;10.938;2023-02-13T17:07:39;34.35;;;20.27;;
41255;SDS011;26989;45.524;10.938;2023-02-13T17:12:53;33.92;;;19.48;;
41255;SDS011;26989;45.524;10.938;2023-02-13T17:15:22;34.80;;;18.92;;
41255;SDS011;26989;45.524;10.938;2023-02-13T17:17:50;31.25;;;19.48;;
41255;SDS011;26989;45.524;10.938;2023-02-13T17:20:23;30.85;;;16.90;;
41255;SDS011;26989;45.524;10.938;2023-02-13T17:22:58;32.28;;;17.70;;
41255;SDS011;26989;45.524;10.938;2023-02-13T17:25:28;36.30;;;18.85;;
41255;SDS011;26989;45.524;10.938;2023-02-13T17:28:09;39.15;;;20.05;;
41255;SDS011;26989;45.524;10.938;2023-02-13T17:30:38;36.50;;;19.35;;
41255;SDS011;26989;45.524;10.938;2023-02-13T17:33:09;37.70;;;20.35;;
41255;SDS011;26989;45.524;10.938;2023-02-13T17:35:40;35.17;;;20.30;;
41255;SDS011;26989;45.524;10.938;2023-02-13T17:38:08;33.38;;;19.17;;
41255;SDS011;26989;45.524;10.938;2023-02-13T17:40:36;39.83;;;20.05;;
41255;SDS011;26989;45.524;10.938;2023-02-13T17:43:02;36.92;;;19.83;;
41255;SDS011;26989;45.524;10.938;2023-02-13T17:45:30;35.22;;;19.10;;
41255;SDS011;26989;45.524;10.938;2023-02-13T17:48:00;37.55;;;20.88;;
41255;SDS011;26989;45.524;10.938;2023-02-13T17:50:28;37.42;;;21.48;;
41255;SDS011;26989;45.524;10.938;2023-02-13T17:52:56;34.63;;;20.25;;
41255;SDS011;26989;45.524;10.938;2023-02-13T17:55:27;40.30;;;20.52;;
41255;SDS011;26989;45.524;10.938;2023-02-13T17:57:56;38.10;;;21.30;;
41255;SDS011;26989;45.524;10.938;2023-02-13T18:00:25;44.28;;;23.55;;
41255;SDS011;26989;45.524;10.938;2023-02-13T18:02:54;38.45;;;21.20;;
41255;SDS011;26989;45.524;10.938;2023-02-13T18:05:23;42.70;;;21.33;;
41255;SDS011;26989;45.524;10.938;2023-02-13T18:07:50;39.63;;;22.10;;
41255;SDS011;26989;45.524;10.938;2023-02-13T18:10:19;38.83;;;21.45;;
41255;SDS011;26989;45.524;10.938;2023-02-13T18:12:48;39.80;;;23.05;;
41255;SDS011;26989;45.524;10.938;2023-02-13T18:15:15;36.58;;;21.98;;